createdAt,value
2022-12-25T00:01:56.000Z,278.15
2022-12-25T00:03:23.000Z,278.15
2022-12-25T00:05:29.000Z,278.21
2022-12-25T00:06:56.000Z,278.21
2022-12-25T00:09:02.000Z,278.21
2022-12-25T00:10:28.000Z,278.27
2022-12-25T00:12:34.000Z,278.21
2022-12-25T00:14:01.000Z,278.15
2022-12-25T00:16:07.000Z,278.09
2022-12-25T00:17:34.000Z,278.15
2022-12-25T00:19:40.000Z,278.21
2022-12-25T00:21:06.000Z,278.15
2022-12-25T00:23:12.000Z,278.15
2022-12-25T00:24:39.000Z,278.15
2022-12-25T00:26:45.000Z,278.15
2022-12-25T00:28:11.000Z,278.21
2022-12-25T00:30:18.000Z,278.27
2022-12-25T00:31:44.000Z,278.21
2022-12-25T00:33:50.000Z,278.27
2022-12-25T00:35:17.000Z,278.4
2022-12-25T00:37:23.000Z,278.34
2022-12-25T00:40:14.000Z,278.34
2022-12-25T00:41:40.000Z,278.4
2022-12-25T00:43:46.000Z,278.52
2022-12-25T00:45:13.000Z,278.52
2022-12-25T00:47:20.000Z,278.65
2022-12-25T00:48:46.000Z,278.59
2022-12-25T00:50:52.000Z,278.84
2022-12-25T00:52:19.000Z,278.77
2022-12-25T00:54:25.000Z,278.71
2022-12-25T00:55:52.000Z,278.84
2022-12-25T00:57:58.000Z,278.77
2022-12-25T00:59:24.000Z,278.71
2022-12-25T01:01:30.000Z,278.59
2022-12-25T01:02:57.000Z,278.59
2022-12-25T01:05:04.000Z,278.59
2022-12-25T01:06:30.000Z,278.59
2022-12-25T01:08:37.000Z,278.65
2022-12-25T01:10:03.000Z,278.65
2022-12-25T01:12:09.000Z,278.65
2022-12-25T01:13:36.000Z,278.59
2022-12-25T01:15:42.000Z,278.59
2022-12-25T01:18:33.000Z,278.65
2022-12-25T01:20:00.000Z,278.71
2022-12-25T01:22:06.000Z,278.71
2022-12-25T01:23:32.000Z,278.71
2022-12-25T01:25:38.000Z,278.71
2022-12-25T01:27:05.000Z,278.77
2022-12-25T01:29:11.000Z,278.71
2022-12-25T01:30:38.000Z,278.77
2022-12-25T01:32:44.000Z,278.84
2022-12-25T01:34:11.000Z,278.84
2022-12-25T01:36:17.000Z,278.84
2022-12-25T01:37:43.000Z,278.84
2022-12-25T01:39:49.000Z,278.9
2022-12-25T01:41:16.000Z,278.84
2022-12-25T01:43:22.000Z,278.9
2022-12-25T01:44:48.000Z,278.96
2022-12-25T01:46:55.000Z,278.96
2022-12-25T01:48:21.000Z,279.02
2022-12-25T01:50:27.000Z,278.96
2022-12-25T01:51:54.000Z,279.02
2022-12-25T01:54:00.000Z,279.02
2022-12-25T01:56:51.000Z,278.96
2022-12-25T01:58:18.000Z,278.96
2022-12-25T02:00:24.000Z,278.96
2022-12-25T02:01:51.000Z,278.9
2022-12-25T02:03:57.000Z,278.96
2022-12-25T02:05:24.000Z,278.96
2022-12-25T02:07:30.000Z,278.9
2022-12-25T02:08:57.000Z,278.96
2022-12-25T02:11:03.000Z,278.96
2022-12-25T02:12:30.000Z,279.09
2022-12-25T02:14:36.000Z,279.02
2022-12-25T02:16:02.000Z,278.96
2022-12-25T02:18:08.000Z,278.96
2022-12-25T02:19:35.000Z,278.96
2022-12-25T02:21:41.000Z,278.96
2022-12-25T02:23:08.000Z,279.02
2022-12-25T02:25:14.000Z,279.02
2022-12-25T02:26:40.000Z,278.96
2022-12-25T02:28:46.000Z,278.96
2022-12-25T02:30:13.000Z,278.96
2022-12-25T02:32:19.000Z,278.96
2022-12-25T02:35:10.000Z,279.02
2022-12-25T02:36:37.000Z,279.02
2022-12-25T02:38:43.000Z,279.02
2022-12-25T02:40:10.000Z,279.02
2022-12-25T02:42:16.000Z,278.96
2022-12-25T02:43:42.000Z,279.09
2022-12-25T02:45:48.000Z,279.09
2022-12-25T02:47:15.000Z,279.09
2022-12-25T02:49:21.000Z,279.15
2022-12-25T02:50:48.000Z,279.15
2022-12-25T02:52:54.000Z,279.15
2022-12-25T02:54:21.000Z,279.27
2022-12-25T02:56:27.000Z,279.21
2022-12-25T02:57:53.000Z,279.27
2022-12-25T02:59:59.000Z,279.34
2022-12-25T03:01:26.000Z,279.27
2022-12-25T03:03:32.000Z,279.27
2022-12-25T03:04:59.000Z,279.21
2022-12-25T03:07:05.000Z,279.27
2022-12-25T03:08:32.000Z,279.21
2022-12-25T03:10:38.000Z,279.27
2022-12-25T03:13:29.000Z,279.27
2022-12-25T03:14:55.000Z,279.34
2022-12-25T03:17:01.000Z,279.27
2022-12-25T03:18:28.000Z,279.34
2022-12-25T03:20:34.000Z,279.34
2022-12-25T03:22:01.000Z,279.4
2022-12-25T03:24:07.000Z,279.4
2022-12-25T03:25:33.000Z,279.34
2022-12-25T03:27:39.000Z,279.34
2022-12-25T03:29:06.000Z,279.27
2022-12-25T03:31:12.000Z,279.34
2022-12-25T03:32:39.000Z,279.34
2022-12-25T03:34:45.000Z,279.34
2022-12-25T03:36:11.000Z,279.4
2022-12-25T03:38:17.000Z,279.4
2022-12-25T03:39:44.000Z,279.46
2022-12-25T03:41:50.000Z,279.52
2022-12-25T03:43:16.000Z,279.52
2022-12-25T03:45:23.000Z,279.59
2022-12-25T03:46:49.000Z,279.65
2022-12-25T03:48:55.000Z,279.65
2022-12-25T03:51:47.000Z,279.46
2022-12-25T03:53:13.000Z,279.46
2022-12-25T03:55:19.000Z,279.52
2022-12-25T03:56:46.000Z,279.52
2022-12-25T03:58:52.000Z,279.59
2022-12-25T04:00:18.000Z,279.59
2022-12-25T04:02:24.000Z,279.52
2022-12-25T04:03:51.000Z,279.59
2022-12-25T04:05:57.000Z,279.52
2022-12-25T04:07:24.000Z,279.46
2022-12-25T04:09:30.000Z,279.46
2022-12-25T04:10:56.000Z,279.52
2022-12-25T04:13:03.000Z,279.59
2022-12-25T04:14:29.000Z,279.59
2022-12-25T04:16:35.000Z,279.65
2022-12-25T04:18:02.000Z,279.65
2022-12-25T04:20:08.000Z,279.59
2022-12-25T04:21:34.000Z,279.65
2022-12-25T04:23:40.000Z,279.71
2022-12-25T04:25:07.000Z,279.65
2022-12-25T04:27:13.000Z,279.65
2022-12-25T04:30:04.000Z,279.71
2022-12-25T04:31:31.000Z,279.65
2022-12-25T04:33:37.000Z,279.59
2022-12-25T04:35:04.000Z,279.59
2022-12-25T04:37:10.000Z,279.59
2022-12-25T04:38:36.000Z,279.59
2022-12-25T04:40:42.000Z,279.65
2022-12-25T04:42:09.000Z,279.65
2022-12-25T04:44:15.000Z,279.59
2022-12-25T04:45:42.000Z,279.59
2022-12-25T04:47:48.000Z,279.59
2022-12-25T04:49:14.000Z,279.65
2022-12-25T04:51:20.000Z,279.59
2022-12-25T04:52:47.000Z,279.52
2022-12-25T04:54:53.000Z,279.59
2022-12-25T04:56:20.000Z,279.59
2022-12-25T04:58:26.000Z,279.59
2022-12-25T04:59:52.000Z,279.65
2022-12-25T05:01:58.000Z,279.65
2022-12-25T05:03:25.000Z,279.65
2022-12-25T05:05:31.000Z,279.65
2022-12-25T05:08:22.000Z,279.9
2022-12-25T05:09:48.000Z,279.84
2022-12-25T05:11:55.000Z,279.77
2022-12-25T05:13:21.000Z,279.84
2022-12-25T05:15:27.000Z,279.84
2022-12-25T05:16:54.000Z,279.84
2022-12-25T05:19:00.000Z,279.84
2022-12-25T05:20:26.000Z,279.9
2022-12-25T05:22:37.000Z,280.02
2022-12-25T05:24:03.000Z,280.02
2022-12-25T05:26:10.000Z,280.09
2022-12-25T05:27:36.000Z,280.02
2022-12-25T05:29:42.000Z,280.02
2022-12-25T05:31:09.000Z,280.09
2022-12-25T05:33:15.000Z,280.15
2022-12-25T05:34:41.000Z,280.15
2022-12-25T05:36:48.000Z,280.21
2022-12-25T05:38:14.000Z,280.21
2022-12-25T05:40:20.000Z,280.15
2022-12-25T05:41:47.000Z,280.15
2022-12-25T05:43:53.000Z,280.09
2022-12-25T05:46:44.000Z,280.15
2022-12-25T05:48:11.000Z,280.15
2022-12-25T05:50:17.000Z,280.21
2022-12-25T05:51:43.000Z,280.15
2022-12-25T05:53:49.000Z,280.15
2022-12-25T05:55:16.000Z,280.21
2022-12-25T05:57:22.000Z,280.15
2022-12-25T05:58:49.000Z,280.15
2022-12-25T06:00:55.000Z,280.15
2022-12-25T06:02:21.000Z,280.09
2022-12-25T06:04:28.000Z,280.09
2022-12-25T06:05:54.000Z,280.21
2022-12-25T06:08:00.000Z,280.09
2022-12-25T06:09:27.000Z,280.15
2022-12-25T06:11:33.000Z,280.09
2022-12-25T06:12:59.000Z,280.09
2022-12-25T06:15:05.000Z,280.09
2022-12-25T06:16:32.000Z,280.02
2022-12-25T06:18:42.000Z,280.02
2022-12-25T06:20:09.000Z,280.09
2022-12-25T06:22:15.000Z,280.09
2022-12-25T06:25:06.000Z,280.15
2022-12-25T06:26:33.000Z,280.09
2022-12-25T06:28:39.000Z,280.02
2022-12-25T06:30:05.000Z,280.02
2022-12-25T06:32:11.000Z,280.02
2022-12-25T06:33:38.000Z,280.02
2022-12-25T06:35:44.000Z,280.02
2022-12-25T06:37:11.000Z,280.02
2022-12-25T06:39:17.000Z,280.09
2022-12-25T06:40:43.000Z,280.02
2022-12-25T06:42:49.000Z,279.96
2022-12-25T06:44:16.000Z,280.02
2022-12-25T06:46:22.000Z,279.96
2022-12-25T06:47:49.000Z,279.96
2022-12-25T06:49:55.000Z,279.96
2022-12-25T06:51:21.000Z,280.02
2022-12-25T06:53:28.000Z,279.96
2022-12-25T06:55:01.000Z,279.96
2022-12-25T06:57:07.000Z,279.96
2022-12-25T06:58:34.000Z,280.02
2022-12-25T07:00:40.000Z,280.02
2022-12-25T07:03:31.000Z,279.9
2022-12-25T07:04:58.000Z,279.96
2022-12-25T07:07:04.000Z,280.02
2022-12-25T07:08:34.000Z,280.02
2022-12-25T07:10:40.000Z,280.02
2022-12-25T07:12:06.000Z,280.09
2022-12-25T07:14:12.000Z,280.02
2022-12-25T07:15:47.000Z,280.02
2022-12-25T07:17:53.000Z,280.02
2022-12-25T07:19:20.000Z,280.02
2022-12-25T07:21:26.000Z,280.02
2022-12-25T07:22:52.000Z,279.96
2022-12-25T07:24:58.000Z,280.02
2022-12-25T07:26:25.000Z,280.02
2022-12-25T07:28:31.000Z,280.02
2022-12-25T07:29:58.000Z,280.02
2022-12-25T07:32:04.000Z,280.02
2022-12-25T07:33:31.000Z,280.02
2022-12-25T07:35:37.000Z,280.02
2022-12-25T07:37:03.000Z,280.02
2022-12-25T07:39:09.000Z,279.96
2022-12-25T07:42:00.000Z,279.96
2022-12-25T07:43:27.000Z,279.96
2022-12-25T07:45:33.000Z,279.96
2022-12-25T07:47:00.000Z,279.96
2022-12-25T07:49:06.000Z,279.96
2022-12-25T07:50:32.000Z,280.02
2022-12-25T07:52:39.000Z,279.96
2022-12-25T07:54:08.000Z,280.02
2022-12-25T07:56:14.000Z,280.02
2022-12-25T07:57:41.000Z,280.02
2022-12-25T07:59:47.000Z,280.02
2022-12-25T08:01:13.000Z,280.09
2022-12-25T08:03:20.000Z,280.15
2022-12-25T08:04:47.000Z,280.09
2022-12-25T08:06:53.000Z,280.09
2022-12-25T08:08:19.000Z,280.09
2022-12-25T08:10:25.000Z,280.09
2022-12-25T08:11:52.000Z,280.09
2022-12-25T08:13:58.000Z,280.09
2022-12-25T08:15:25.000Z,280.09
2022-12-25T08:17:31.000Z,280.15
2022-12-25T08:20:22.000Z,280.21
2022-12-25T08:21:48.000Z,280.21
2022-12-25T08:23:54.000Z,280.27
2022-12-25T08:25:21.000Z,280.27
2022-12-25T08:27:27.000Z,280.27
2022-12-25T08:28:53.000Z,280.27
2022-12-25T08:31:00.000Z,280.34
2022-12-25T08:32:26.000Z,280.34
2022-12-25T08:34:32.000Z,280.34
2022-12-25T08:35:59.000Z,280.4
2022-12-25T08:38:05.000Z,280.4
2022-12-25T08:39:31.000Z,280.4
2022-12-25T08:41:38.000Z,280.46
2022-12-25T08:43:04.000Z,280.52
2022-12-25T08:45:10.000Z,280.46
2022-12-25T08:46:37.000Z,280.46
2022-12-25T08:48:43.000Z,280.52
2022-12-25T08:50:09.000Z,280.59
2022-12-25T08:52:16.000Z,280.59
2022-12-25T08:53:42.000Z,280.52
2022-12-25T08:55:48.000Z,280.59
2022-12-25T08:58:40.000Z,280.65
2022-12-25T09:00:06.000Z,280.65
2022-12-25T09:02:12.000Z,280.65
2022-12-25T09:03:39.000Z,280.65
2022-12-25T09:05:46.000Z,280.65
2022-12-25T09:07:12.000Z,280.65
2022-12-25T09:09:18.000Z,280.65
2022-12-25T09:10:45.000Z,280.65
2022-12-25T09:12:51.000Z,280.71
2022-12-25T09:14:18.000Z,280.71
2022-12-25T09:16:24.000Z,280.71
2022-12-25T09:17:50.000Z,280.77
2022-12-25T09:19:56.000Z,280.77
2022-12-25T09:21:23.000Z,280.84
2022-12-25T09:23:29.000Z,280.9
2022-12-25T09:24:56.000Z,280.9
2022-12-25T09:27:02.000Z,280.84
2022-12-25T09:28:28.000Z,280.84
2022-12-25T09:30:34.000Z,280.84
2022-12-25T09:32:01.000Z,280.96
2022-12-25T09:34:07.000Z,281.02
2022-12-25T09:37:06.000Z,281.15
2022-12-25T09:38:32.000Z,281.15
2022-12-25T09:40:38.000Z,281.21
2022-12-25T09:42:05.000Z,281.21
2022-12-25T09:44:11.000Z,281.21
2022-12-25T09:45:38.000Z,281.27
2022-12-25T09:47:44.000Z,281.27
2022-12-25T09:49:10.000Z,281.27
2022-12-25T09:51:16.000Z,281.27
2022-12-25T09:52:43.000Z,281.27
2022-12-25T09:54:49.000Z,281.27
2022-12-25T09:56:15.000Z,281.27
2022-12-25T09:58:22.000Z,281.34
2022-12-25T09:59:48.000Z,281.34
2022-12-25T10:01:54.000Z,281.34
2022-12-25T10:03:21.000Z,281.27
2022-12-25T10:05:27.000Z,281.27
2022-12-25T10:06:54.000Z,281.34
2022-12-25T10:09:00.000Z,281.34
2022-12-25T10:10:27.000Z,281.34
2022-12-25T10:12:33.000Z,281.4
2022-12-25T10:15:24.000Z,281.4
2022-12-25T10:16:51.000Z,281.4
2022-12-25T10:18:57.000Z,281.46
2022-12-25T10:20:23.000Z,281.46
2022-12-25T10:22:29.000Z,281.52
2022-12-25T10:23:56.000Z,281.52
2022-12-25T10:26:02.000Z,281.46
2022-12-25T10:27:28.000Z,281.46
2022-12-25T10:29:34.000Z,281.4
2022-12-25T10:31:01.000Z,281.4
2022-12-25T10:33:07.000Z,281.34
2022-12-25T10:34:41.000Z,281.4
2022-12-25T10:36:47.000Z,281.34
2022-12-25T10:38:13.000Z,281.4
2022-12-25T10:40:19.000Z,281.4
2022-12-25T10:41:46.000Z,281.4
2022-12-25T10:43:52.000Z,281.4
2022-12-25T10:45:19.000Z,281.46
2022-12-25T10:47:25.000Z,281.46
2022-12-25T10:48:51.000Z,281.46
2022-12-25T10:50:58.000Z,281.52
2022-12-25T10:53:50.000Z,281.46
2022-12-25T10:55:16.000Z,281.52
2022-12-25T10:57:27.000Z,281.52
2022-12-25T10:58:54.000Z,281.52
2022-12-25T11:01:00.000Z,281.52
2022-12-25T11:02:26.000Z,281.52
2022-12-25T11:04:33.000Z,281.52
2022-12-25T11:06:00.000Z,281.52
2022-12-25T11:08:06.000Z,281.52
2022-12-25T11:09:32.000Z,281.59
2022-12-25T11:11:38.000Z,281.59
2022-12-25T11:13:05.000Z,281.65
2022-12-25T11:15:11.000Z,281.65
2022-12-25T11:16:38.000Z,281.71
2022-12-25T11:18:44.000Z,281.65
2022-12-25T11:20:11.000Z,281.65
2022-12-25T11:22:17.000Z,281.65
2022-12-25T11:23:43.000Z,281.59
2022-12-25T11:25:49.000Z,281.59
2022-12-25T11:27:16.000Z,281.59
2022-12-25T11:29:22.000Z,281.59
2022-12-25T11:32:13.000Z,281.52
2022-12-25T11:33:40.000Z,281.52
2022-12-25T11:35:46.000Z,281.52
2022-12-25T11:37:12.000Z,281.52
2022-12-25T11:39:19.000Z,281.52
2022-12-25T11:40:45.000Z,281.52
2022-12-25T11:42:51.000Z,281.52
2022-12-25T11:44:18.000Z,281.52
2022-12-25T11:46:24.000Z,281.59
2022-12-25T11:47:50.000Z,281.59
2022-12-25T11:49:57.000Z,281.52
2022-12-25T11:51:25.000Z,281.59
2022-12-25T11:53:31.000Z,281.65
2022-12-25T11:54:58.000Z,281.65
2022-12-25T11:57:04.000Z,281.65
2022-12-25T11:58:31.000Z,281.65
2022-12-25T12:00:37.000Z,281.71
2022-12-25T12:02:04.000Z,281.71
2022-12-25T12:04:10.000Z,281.71
2022-12-25T12:05:36.000Z,281.71
2022-12-25T12:07:43.000Z,281.71
2022-12-25T12:10:34.000Z,281.71
2022-12-25T12:12:00.000Z,281.71
2022-12-25T12:14:06.000Z,281.71
2022-12-25T12:15:33.000Z,281.71
2022-12-25T12:17:39.000Z,281.71
2022-12-25T12:19:06.000Z,281.65
2022-12-25T12:21:12.000Z,281.65
2022-12-25T12:22:38.000Z,281.65
2022-12-25T12:24:45.000Z,281.65
2022-12-25T12:26:11.000Z,281.65
2022-12-25T12:28:17.000Z,281.59
2022-12-25T12:29:44.000Z,281.65
2022-12-25T12:31:50.000Z,281.65
2022-12-25T12:33:16.000Z,281.71
2022-12-25T12:35:22.000Z,281.65
2022-12-25T12:36:49.000Z,281.71
2022-12-25T12:38:55.000Z,281.65
2022-12-25T12:40:22.000Z,281.65
2022-12-25T12:42:28.000Z,281.71
2022-12-25T12:43:55.000Z,281.71
2022-12-25T12:46:01.000Z,281.71
2022-12-25T12:48:52.000Z,281.71
2022-12-25T12:50:18.000Z,281.71
2022-12-25T12:52:24.000Z,281.71
2022-12-25T12:53:51.000Z,281.77
2022-12-25T12:55:57.000Z,281.77
2022-12-25T12:57:24.000Z,281.77
2022-12-25T12:59:30.000Z,281.77
2022-12-25T13:00:56.000Z,281.77
2022-12-25T13:03:02.000Z,281.77
2022-12-25T13:04:29.000Z,281.77
2022-12-25T13:06:35.000Z,281.84
2022-12-25T13:08:02.000Z,281.84
2022-12-25T13:10:08.000Z,281.77
2022-12-25T13:11:34.000Z,281.84
2022-12-25T13:13:41.000Z,281.77
2022-12-25T13:15:07.000Z,281.84
2022-12-25T13:17:13.000Z,281.77
2022-12-25T13:18:40.000Z,281.84
2022-12-25T13:20:46.000Z,281.84
2022-12-25T13:22:12.000Z,281.84
2022-12-25T13:24:18.000Z,281.84
2022-12-25T13:27:10.000Z,281.84
2022-12-25T13:28:36.000Z,281.84
2022-12-25T13:30:44.000Z,281.84
2022-12-25T13:32:10.000Z,281.84
2022-12-25T13:34:16.000Z,281.84
2022-12-25T13:35:43.000Z,281.9
2022-12-25T13:37:49.000Z,281.9
2022-12-25T13:39:15.000Z,281.96
2022-12-25T13:41:21.000Z,281.9
2022-12-25T13:42:48.000Z,281.9
2022-12-25T13:44:54.000Z,281.9
2022-12-25T13:46:21.000Z,281.84
2022-12-25T13:48:27.000Z,281.84
2022-12-25T13:49:53.000Z,281.84
2022-12-25T13:51:59.000Z,281.84
2022-12-25T13:53:26.000Z,281.84
2022-12-25T13:55:32.000Z,281.84
2022-12-25T13:56:58.000Z,281.9
2022-12-25T13:59:05.000Z,281.96
2022-12-25T14:00:31.000Z,282.02
2022-12-25T14:02:37.000Z,281.96
2022-12-25T14:05:29.000Z,281.96
2022-12-25T14:07:04.000Z,281.96
2022-12-25T14:09:10.000Z,281.96
2022-12-25T14:10:36.000Z,281.96
2022-12-25T14:12:42.000Z,282.09
2022-12-25T14:14:09.000Z,282.02
2022-12-25T14:16:15.000Z,281.96
2022-12-25T14:17:41.000Z,281.96
2022-12-25T14:19:48.000Z,281.9
2022-12-25T14:21:14.000Z,281.96
2022-12-25T14:23:20.000Z,281.96
2022-12-25T14:24:47.000Z,281.9
2022-12-25T14:26:53.000Z,281.84
2022-12-25T14:28:20.000Z,281.84
2022-12-25T14:30:26.000Z,281.9
2022-12-25T14:31:52.000Z,281.84
2022-12-25T14:33:58.000Z,281.84
2022-12-25T14:35:25.000Z,281.77
2022-12-25T14:37:31.000Z,281.77
2022-12-25T14:38:58.000Z,281.77
2022-12-25T14:41:04.000Z,281.77
2022-12-25T14:43:55.000Z,281.77
2022-12-25T14:45:22.000Z,281.84
2022-12-25T14:47:28.000Z,281.84
2022-12-25T14:48:55.000Z,281.77
2022-12-25T14:51:01.000Z,281.77
2022-12-25T14:52:27.000Z,281.77
2022-12-25T14:54:34.000Z,281.71
2022-12-25T14:56:00.000Z,281.71
2022-12-25T14:58:06.000Z,281.71
2022-12-25T14:59:33.000Z,281.71
2022-12-25T15:01:39.000Z,281.71
2022-12-25T15:03:06.000Z,281.71
2022-12-25T15:05:12.000Z,281.71
2022-12-25T15:06:39.000Z,281.71
2022-12-25T15:08:45.000Z,281.65
2022-12-25T15:10:11.000Z,281.71
2022-12-25T15:13:01.000Z,281.65
2022-12-25T15:14:28.000Z,281.71
2022-12-25T15:16:34.000Z,281.65
2022-12-25T15:18:01.000Z,281.65
2022-12-25T15:20:07.000Z,281.65
2022-12-25T15:22:58.000Z,281.65
2022-12-25T15:24:44.000Z,281.65
2022-12-25T15:26:50.000Z,281.65
2022-12-25T15:28:16.000Z,281.59
2022-12-25T15:30:23.000Z,281.59
2022-12-25T15:31:49.000Z,281.59
2022-12-25T15:33:55.000Z,281.59
2022-12-25T15:35:22.000Z,281.65
2022-12-25T15:37:28.000Z,281.65
2022-12-25T15:38:54.000Z,281.65
2022-12-25T15:41:00.000Z,281.65
2022-12-25T15:42:27.000Z,281.65
2022-12-25T15:44:34.000Z,281.59
2022-12-25T15:46:01.000Z,281.59
2022-12-25T15:48:07.000Z,281.59
2022-12-25T15:49:34.000Z,281.59
2022-12-25T15:51:40.000Z,281.59
2022-12-25T15:53:06.000Z,281.52
2022-12-25T15:55:12.000Z,281.59
2022-12-25T15:56:39.000Z,281.59
2022-12-25T15:58:45.000Z,281.65
2022-12-25T16:01:36.000Z,281.65
2022-12-25T16:03:03.000Z,281.65
2022-12-25T16:05:10.000Z,281.59
2022-12-25T16:06:36.000Z,281.59
2022-12-25T16:08:42.000Z,281.52
2022-12-25T16:10:09.000Z,281.59
2022-12-25T16:12:15.000Z,281.59
2022-12-25T16:13:42.000Z,281.65
2022-12-25T16:15:48.000Z,281.65
2022-12-25T16:17:14.000Z,281.71
2022-12-25T16:19:21.000Z,281.71
2022-12-25T16:20:47.000Z,281.71
2022-12-25T16:22:53.000Z,281.71
2022-12-25T16:24:20.000Z,281.71
2022-12-25T16:26:26.000Z,281.71
2022-12-25T16:27:52.000Z,281.77
2022-12-25T16:29:59.000Z,281.77
2022-12-25T16:31:25.000Z,281.77
2022-12-25T16:33:31.000Z,281.77
2022-12-25T16:34:58.000Z,281.84
2022-12-25T16:37:04.000Z,281.77
2022-12-25T16:39:55.000Z,281.65
2022-12-25T16:41:21.000Z,281.65
2022-12-25T16:43:28.000Z,281.65
2022-12-25T16:44:54.000Z,281.59
2022-12-25T16:47:00.000Z,281.65
2022-12-25T16:48:27.000Z,281.59
2022-12-25T16:50:33.000Z,281.59
2022-12-25T16:51:59.000Z,281.65
2022-12-25T16:54:06.000Z,281.65
2022-12-25T16:55:32.000Z,281.59
2022-12-25T16:57:38.000Z,281.59
2022-12-25T16:59:05.000Z,281.59
2022-12-25T17:01:11.000Z,281.52
2022-12-25T17:02:38.000Z,281.52
2022-12-25T17:04:44.000Z,281.59
2022-12-25T17:06:11.000Z,281.59
2022-12-25T17:08:17.000Z,281.65
2022-12-25T17:09:43.000Z,281.65
2022-12-25T17:11:50.000Z,281.59
2022-12-25T17:13:16.000Z,281.59
2022-12-25T17:15:22.000Z,281.71
2022-12-25T17:18:13.000Z,281.59
2022-12-25T17:19:40.000Z,281.65
2022-12-25T17:21:46.000Z,281.65
2022-12-25T17:23:12.000Z,281.65
2022-12-25T17:25:18.000Z,281.65
2022-12-25T17:26:45.000Z,281.65
2022-12-25T17:28:51.000Z,281.65
2022-12-25T17:30:17.000Z,281.59
2022-12-25T17:32:23.000Z,281.65
2022-12-25T17:33:50.000Z,281.71
2022-12-25T17:35:56.000Z,281.65
2022-12-25T17:37:28.000Z,281.59
2022-12-25T17:39:34.000Z,281.59
2022-12-25T17:41:00.000Z,281.59
2022-12-25T17:43:07.000Z,281.59
2022-12-25T17:44:33.000Z,281.65
2022-12-25T17:46:39.000Z,281.65
2022-12-25T17:48:06.000Z,281.65
2022-12-25T17:50:12.000Z,281.59
2022-12-25T17:51:39.000Z,281.65
2022-12-25T17:53:45.000Z,281.59
2022-12-25T17:56:36.000Z,281.59
2022-12-25T17:58:03.000Z,281.59
2022-12-25T18:00:09.000Z,281.65
2022-12-25T18:01:36.000Z,281.59
2022-12-25T18:03:42.000Z,281.59
2022-12-25T18:05:09.000Z,281.59
2022-12-25T18:07:15.000Z,281.59
2022-12-25T18:08:41.000Z,281.59
2022-12-25T18:10:48.000Z,281.59
2022-12-25T18:12:14.000Z,281.65
2022-12-25T18:14:20.000Z,281.65
2022-12-25T18:15:47.000Z,281.59
2022-12-25T18:17:53.000Z,281.65
2022-12-25T18:19:19.000Z,281.65
2022-12-25T18:21:25.000Z,281.59
2022-12-25T18:22:52.000Z,281.52
2022-12-25T18:24:58.000Z,281.59
2022-12-25T18:26:24.000Z,281.65
2022-12-25T18:28:31.000Z,281.65
2022-12-25T18:29:57.000Z,281.71
2022-12-25T18:32:04.000Z,281.65
2022-12-25T18:34:55.000Z,281.65
2022-12-25T18:36:21.000Z,281.59
2022-12-25T18:38:27.000Z,281.59
2022-12-25T18:39:54.000Z,281.52
2022-12-25T18:42:00.000Z,281.59
2022-12-25T18:43:26.000Z,281.59
2022-12-25T18:45:59.000Z,281.65
2022-12-25T18:47:25.000Z,281.59
2022-12-25T18:49:32.000Z,281.65
2022-12-25T18:50:58.000Z,281.71
2022-12-25T18:53:04.000Z,281.71
2022-12-25T18:54:31.000Z,281.71
2022-12-25T18:56:37.000Z,281.65
2022-12-25T18:58:03.000Z,281.77
2022-12-25T19:00:09.000Z,281.77
2022-12-25T19:01:36.000Z,281.84
2022-12-25T19:03:42.000Z,281.77
2022-12-25T19:05:09.000Z,281.77
2022-12-25T19:07:15.000Z,281.77
2022-12-25T19:08:41.000Z,281.77
2022-12-25T19:10:47.000Z,281.77
2022-12-25T19:13:39.000Z,281.84
2022-12-25T19:15:05.000Z,281.77
2022-12-25T19:17:11.000Z,281.84
2022-12-25T19:18:38.000Z,281.9
2022-12-25T19:20:44.000Z,281.84
2022-12-25T19:22:10.000Z,281.84
2022-12-25T19:24:17.000Z,281.84
2022-12-25T19:25:43.000Z,281.84
2022-12-25T19:27:49.000Z,281.9
2022-12-25T19:29:16.000Z,281.84
2022-12-25T19:31:22.000Z,281.9
2022-12-25T19:32:48.000Z,281.9
2022-12-25T19:34:55.000Z,281.9
2022-12-25T19:36:21.000Z,281.96
2022-12-25T19:38:27.000Z,282.02
2022-12-25T19:39:54.000Z,281.96
2022-12-25T19:42:00.000Z,282.02
2022-12-25T19:43:26.000Z,282.09
2022-12-25T19:45:32.000Z,282.09
2022-12-25T19:46:59.000Z,282.02
2022-12-25T19:49:05.000Z,281.96
2022-12-25T19:51:56.000Z,282.02
2022-12-25T19:53:23.000Z,282.02
2022-12-25T19:55:29.000Z,281.96
2022-12-25T19:56:55.000Z,282.02
2022-12-25T19:59:02.000Z,282.09
2022-12-25T20:00:28.000Z,282.09
2022-12-25T20:02:34.000Z,282.02
2022-12-25T20:04:01.000Z,281.96
2022-12-25T20:06:07.000Z,282.09
2022-12-25T20:07:34.000Z,282.09
2022-12-25T20:09:41.000Z,282.15
2022-12-25T20:11:07.000Z,282.15
2022-12-25T20:13:13.000Z,282.21
2022-12-25T20:14:40.000Z,282.21
2022-12-25T20:16:46.000Z,282.34
2022-12-25T20:18:12.000Z,282.34
2022-12-25T20:20:19.000Z,282.21
2022-12-25T20:21:45.000Z,282.15
2022-12-25T20:23:51.000Z,282.15
2022-12-25T20:25:18.000Z,282.15
2022-12-25T20:27:24.000Z,282.15
2022-12-25T20:30:15.000Z,282.21
2022-12-25T20:31:42.000Z,282.15
2022-12-25T20:33:48.000Z,282.21
2022-12-25T20:35:14.000Z,282.15
2022-12-25T20:37:20.000Z,282.27
2022-12-25T20:38:47.000Z,282.27
2022-12-25T20:40:53.000Z,282.27
2022-12-25T20:42:51.000Z,282.27
2022-12-25T20:44:57.000Z,282.27
2022-12-25T20:46:24.000Z,282.27
2022-12-25T20:48:30.000Z,282.27
2022-12-25T20:49:57.000Z,282.21
2022-12-25T20:52:03.000Z,282.21
2022-12-25T20:53:30.000Z,282.27
2022-12-25T20:55:36.000Z,282.27
2022-12-25T20:57:03.000Z,282.34
2022-12-25T20:59:09.000Z,282.34
2022-12-25T21:00:35.000Z,282.27
2022-12-25T21:02:42.000Z,282.27
2022-12-25T21:04:09.000Z,282.27
2022-12-25T21:06:20.000Z,282.46
2022-12-25T21:09:11.000Z,282.4
2022-12-25T21:10:38.000Z,282.52
2022-12-25T21:12:44.000Z,282.59
2022-12-25T21:14:10.000Z,282.65
2022-12-25T21:16:16.000Z,282.65
2022-12-25T21:17:43.000Z,282.77
2022-12-25T21:19:49.000Z,282.71
2022-12-25T21:21:16.000Z,282.77
2022-12-25T21:23:22.000Z,282.84
2022-12-25T21:24:48.000Z,282.77
2022-12-25T21:26:55.000Z,282.77
2022-12-25T21:28:21.000Z,282.84
2022-12-25T21:30:27.000Z,282.77
2022-12-25T21:31:54.000Z,282.71
2022-12-25T21:34:00.000Z,282.77
2022-12-25T21:35:27.000Z,282.77
2022-12-25T21:37:33.000Z,282.77
2022-12-25T21:38:59.000Z,282.77
2022-12-25T21:41:05.000Z,282.77
2022-12-25T21:42:32.000Z,282.77
2022-12-25T21:44:38.000Z,282.9
2022-12-25T21:47:29.000Z,282.9
2022-12-25T21:49:27.000Z,282.77
2022-12-25T21:51:33.000Z,282.84
2022-12-25T21:52:59.000Z,282.77
2022-12-25T21:55:05.000Z,282.84
2022-12-25T21:56:32.000Z,282.84
2022-12-25T21:58:47.000Z,282.84
2022-12-25T22:00:13.000Z,282.84
2022-12-25T22:02:20.000Z,282.84
2022-12-25T22:03:47.000Z,282.84
2022-12-25T22:05:53.000Z,282.84
2022-12-25T22:07:19.000Z,282.84
2022-12-25T22:09:25.000Z,282.84
2022-12-25T22:10:52.000Z,282.84
2022-12-25T22:12:58.000Z,282.84
2022-12-25T22:14:25.000Z,282.9
2022-12-25T22:16:57.000Z,282.84
2022-12-25T22:18:24.000Z,282.9
2022-12-25T22:20:30.000Z,282.84
2022-12-25T22:21:56.000Z,282.9
2022-12-25T22:24:02.000Z,282.9
2022-12-25T22:26:54.000Z,282.84
2022-12-25T22:28:20.000Z,282.9
2022-12-25T22:30:26.000Z,282.9
2022-12-25T22:31:53.000Z,282.84
2022-12-25T22:33:59.000Z,282.9
2022-12-25T22:35:26.000Z,282.96
2022-12-25T22:37:32.000Z,282.9
2022-12-25T22:38:58.000Z,282.84
2022-12-25T22:41:05.000Z,282.9
2022-12-25T22:42:31.000Z,282.9
2022-12-25T22:44:37.000Z,282.96
2022-12-25T22:46:04.000Z,282.84
2022-12-25T22:48:10.000Z,282.84
2022-12-25T22:49:37.000Z,282.84
2022-12-25T22:51:43.000Z,282.84
2022-12-25T22:53:09.000Z,282.84